Time;durP1;ratioP1;P1;durP2;ratioP2;P2;SDS_P1;SDS_P2;PMS_P1;PMS_P2;Temp;Humidity;BMP_temperature;BMP_pressure;BME280_temperature;BME280_humidity;BME280_pressure;Samples;Min_cycle;Max_cycle;Signal;HPM_P1;HPM_P2
2021/07/03 00:00:27;;;;;;;14.88;7.30;;;15.80;99.90;;;;;;6249091;22;20016;-76
2021/07/03 00:02:53;;;;;;;16.08;7.53;;;15.80;99.90;;;;;;6248860;22;20012;-76
2021/07/03 00:05:18;;;;;;;12.55;7.05;;;15.80;99.90;;;;;;6250626;22;20016;-76
2021/07/03 00:07:45;;;;;;;13.73;7.30;;;15.80;99.90;;;;;;6225851;22;20038;-76
2021/07/03 00:10:11;;;;;;;13.40;7.10;;;15.80;99.90;;;;;;6278640;22;20437;-76
2021/07/03 00:12:37;;;;;;;12.63;7.18;;;15.70;99.90;;;;;;6276133;22;20007;-76
2021/07/03 00:15:06;;;;;;;12.38;7.13;;;15.70;99.90;;;;;;6224186;22;20015;-76
2021/07/03 00:17:32;;;;;;;13.48;7.07;;;15.70;99.90;;;;;;6276173;22;20019;-76
2021/07/03 00:19:58;;;;;;;10.25;6.70;;;15.60;99.90;;;;;;6277656;22;20011;-76
2021/07/03 00:22:24;;;;;;;11.60;7.38;;;15.60;99.90;;;;;;6248851;22;20019;-76
2021/07/03 00:24:49;;;;;;;12.13;7.18;;;15.60;99.90;;;;;;6275752;22;20015;-77
2021/07/03 00:27:15;;;;;;;13.38;7.30;;;15.50;99.90;;;;;;6249172;22;20042;-76
2021/07/03 00:29:41;;;;;;;13.82;7.20;;;15.70;99.90;;;;;;6276090;22;20035;-76
2021/07/03 00:32:10;;;;;;;11.35;6.72;;;15.50;99.90;;;;;;6274579;22;20037;-76
2021/07/03 00:34:36;;;;;;;11.50;6.68;;;15.50;99.90;;;;;;6225046;22;20050;-76
2021/07/03 00:37:02;;;;;;;13.55;7.32;;;15.50;99.90;;;;;;6224323;22;20011;-77
2021/07/03 00:39:28;;;;;;;10.95;7.22;;;15.50;99.90;;;;;;6275644;22;20484;-77
2021/07/03 00:41:57;;;;;;;15.32;7.43;;;15.40;99.90;;;;;;6224999;22;20086;-76
2021/07/03 00:44:31;;;;;;;11.38;7.03;;;15.40;99.90;;;;;;6250428;22;20011;-77
2021/07/03 00:46:59;;;;;;;11.60;7.15;;;15.40;99.90;;;;;;6248156;22;20065;-77
2021/07/03 00:49:25;;;;;;;12.98;7.82;;;15.40;99.90;;;;;;6276792;22;20091;-77
2021/07/03 00:51:51;;;;;;;10.40;7.50;;;15.40;99.90;;;;;;6276806;22;20038;-77
2021/07/03 00:54:20;;;;;;;11.63;8.40;;;15.40;99.90;;;;;;6275321;22;20397;-77
2021/07/03 00:57:01;;;;;;;11.73;7.63;;;15.40;99.90;;;;;;6276229;22;20015;-77
2021/07/03 00:59:38;;;;;;;13.80;7.30;;;15.40;99.90;;;;;;6277495;22;20030;-77
2021/07/03 01:02:14;;;;;;;14.88;8.15;;;15.40;99.90;;;;;;6277298;22;20079;-77
2021/07/03 01:04:41;;;;;;;13.40;7.93;;;15.30;99.90;;;;;;6275589;22;20011;-77
2021/07/03 01:07:08;;;;;;;15.75;8.32;;;15.40;99.90;;;;;;6278696;22;20115;-77
2021/07/03 01:09:35;;;;;;;13.25;8.00;;;15.30;99.90;;;;;;6278250;22;20058;-77
2021/07/03 01:12:01;;;;;;;11.90;8.10;;;15.30;99.90;;;;;;6278808;22;20081;-80
2021/07/03 01:14:28;;;;;;;12.43;7.70;;;15.30;99.90;;;;;;6277035;22;20011;-80
2021/07/03 01:16:54;;;;;;;10.20;7.82;;;15.30;99.90;;;;;;6251520;22;20042;-80
2021/07/03 01:19:20;;;;;;;14.98;8.35;;;15.30;99.90;;;;;;6251009;22;20022;-80
2021/07/03 01:21:53;;;;;;;11.95;8.20;;;15.20;99.90;;;;;;6277640;22;20088;-80
2021/07/03 01:24:22;;;;;;;14.23;8.90;;;15.20;99.90;;;;;;6248843;22;20016;-80
2021/07/03 01:26:51;;;;;;;17.00;8.18;;;15.20;99.90;;;;;;6200062;22;20446;-80
2021/07/03 01:29:24;;;;;;;13.32;8.50;;;15.20;99.90;;;;;;6274459;22;20004;-81
2021/07/03 01:31:53;;;;;;;10.23;7.95;;;15.10;99.90;;;;;;6276026;22;20384;-78
2021/07/03 01:34:22;;;;;;;12.75;8.60;;;15.10;99.90;;;;;;6248046;22;20047;-78
2021/07/03 01:36:48;;;;;;;15.52;9.02;;;15.10;99.90;;;;;;6248544;22;20380;-78
2021/07/03 01:39:14;;;;;;;11.50;8.50;;;15.10;99.90;;;;;;6274987;22;20027;-78
2021/07/03 01:41:41;;;;;;;9.52;7.45;;;15.20;99.90;;;;;;6275708;22;20004;-77
2021/07/03 01:44:07;;;;;;;10.98;8.45;;;15.00;99.90;;;;;;6223266;22;20019;-78
2021/07/03 01:46:33;;;;;;;14.05;7.97;;;15.30;99.90;;;;;;6223465;22;20574;-78
2021/07/03 01:49:00;;;;;;;13.05;8.02;;;15.00;99.90;;;;;;6248559;22;20019;-78
2021/07/03 01:51:26;;;;;;;14.35;8.32;;;15.00;99.90;;;;;;6248339;22;20012;-78
2021/07/03 01:53:52;;;;;;;17.58;8.63;;;15.00;99.90;;;;;;6277767;22;20468;-78
2021/07/03 01:56:20;;;;;;;13.20;8.35;;;15.00;99.90;;;;;;6224290;22;20145;-78
2021/07/03 01:58:49;;;;;;;10.65;7.68;;;14.90;99.90;;;;;;6249639;22;20019;-78
2021/07/03 02:01:15;;;;;;;13.15;7.70;;;14.90;99.90;;;;;;6249257;22;20012;-77
2021/07/03 02:03:40;;;;;;;11.30;8.90;;;14.90;99.90;;;;;;6274419;22;20145;-77
2021/07/03 02:06:07;;;;;;;10.77;8.80;;;14.90;99.90;;;;;;6274977;22;20315;-78
2021/07/03 02:08:33;;;;;;;12.95;9.48;;;14.90;99.90;;;;;;6275373;22;20315;-77
2021/07/03 02:11:00;;;;;;;14.35;9.57;;;14.90;99.90;;;;;;6249114;22;20078;-80
2021/07/03 02:13:27;;;;;;;15.57;9.90;;;14.90;99.90;;;;;;6275779;22;20086;-80
2021/07/03 02:15:53;;;;;;;13.20;9.80;;;14.90;99.90;;;;;;6249737;22;20018;-80
2021/07/03 02:18:19;;;;;;;17.50;10.13;;;14.90;99.90;;;;;;6277282;22;20043;-80
2021/07/03 02:20:46;;;;;;;15.52;9.85;;;14.90;99.90;;;;;;6277584;22;20023;-80
2021/07/03 02:23:12;;;;;;;12.35;9.77;;;14.80;99.90;;;;;;6278460;22;20090;-80
2021/07/03 02:25:38;;;;;;;15.65;9.93;;;14.80;99.90;;;;;;6279498;22;20011;-80
2021/07/03 02:28:05;;;;;;;14.23;10.18;;;14.80;99.90;;;;;;6251048;22;20012;-80
2021/07/03 02:30:33;;;;;;;17.23;9.45;;;14.80;99.90;;;;;;6251048;22;20044;-80
2021/07/03 02:33:00;;;;;;;12.43;9.07;;;14.80;99.90;;;;;;6252069;22;20008;-80
2021/07/03 02:35:26;;;;;;;15.77;10.65;;;14.80;99.90;;;;;;6278189;22;20016;-77
2021/07/03 02:37:53;;;;;;;11.75;9.73;;;14.80;99.90;;;;;;6250366;22;20125;-77
2021/07/03 02:40:22;;;;;;;17.33;10.85;;;14.80;99.90;;;;;;6278175;22;20035;-77
2021/07/03 02:42:47;;;;;;;14.00;10.02;;;14.70;99.90;;;;;;6249937;22;20011;-77
2021/07/03 02:45:15;;;;;;;12.40;9.75;;;14.70;99.90;;;;;;6278239;22;20012;-77
2021/07/03 02:47:42;;;;;;;13.85;10.45;;;14.70;99.90;;;;;;6251795;22;20472;-78
2021/07/03 02:50:11;;;;;;;15.65;11.27;;;14.70;99.90;;;;;;6278410;22;20012;-77
2021/07/03 02:52:40;;;;;;;14.73;10.13;;;14.70;99.90;;;;;;6251877;22;20026;-77
2021/07/03 02:55:07;;;;;;;12.93;10.13;;;14.70;99.90;;;;;;6276890;22;20046;-78
2021/07/03 02:57:33;;;;;;;14.70;10.88;;;14.70;99.90;;;;;;6277633;22;20514;-78
2021/07/03 02:59:59;;;;;;;13.90;10.38;;;14.60;99.90;;;;;;6276895;22;20012;-78
2021/07/03 03:02:26;;;;;;;17.40;10.50;;;14.60;99.90;;;;;;6278236;22;20023;-78
2021/07/03 03:04:51;;;;;;;15.57;10.40;;;14.60;99.90;;;;;;6277856;22;20012;-78
2021/07/03 03:07:20;;;;;;;17.15;10.98;;;14.70;99.90;;;;;;6249937;22;20012;-80
2021/07/03 03:09:45;;;;;;;13.38;10.70;;;14.50;99.90;;;;;;6252823;22;20042;-80
2021/07/03 03:12:12;;;;;;;15.48;10.98;;;14.50;99.90;;;;;;6224699;22;20019;-80
2021/07/03 03:14:44;;;;;;;16.27;12.25;;;14.50;99.90;;;;;;6250481;22;20004;-80
2021/07/03 03:17:10;;;;;;;17.25;11.45;;;14.50;99.90;;;;;;6199475;22;20019;-80
2021/07/03 03:19:36;;;;;;;17.42;11.85;;;14.50;99.90;;;;;;6250057;22;20007;-80
2021/07/03 03:22:02;;;;;;;18.15;12.05;;;14.60;99.90;;;;;;6250104;22;20426;-81
2021/07/03 03:24:28;;;;;;;18.88;12.35;;;14.50;99.90;;;;;;6250692;22;20008;-80
2021/07/03 03:26:54;;;;;;;19.05;12.00;;;14.50;99.90;;;;;;6251480;22;20022;-80
2021/07/03 03:29:20;;;;;;;17.65;13.23;;;14.50;99.90;;;;;;6250658;22;20011;-80
2021/07/03 03:31:46;;;;;;;20.23;12.52;;;14.50;99.90;;;;;;6249569;22;20372;-80
2021/07/03 03:34:12;;;;;;;20.98;13.85;;;14.50;99.90;;;;;;6224315;22;20087;-78
2021/07/03 03:36:38;;;;;;;18.35;13.02;;;14.50;99.90;;;;;;6249781;22;20399;-78
2021/07/03 03:39:04;;;;;;;21.58;13.35;;;14.40;99.90;;;;;;6199319;22;20004;-78
2021/07/03 03:41:30;;;;;;;18.63;13.48;;;14.40;99.90;;;;;;6250801;22;20008;-78
2021/07/03 03:43:57;;;;;;;24.58;13.70;;;14.40;99.90;;;;;;6224816;22;20015;-78
2021/07/03 03:46:23;;;;;;;16.90;12.93;;;14.40;99.90;;;;;;6276678;22;20012;-78
2021/07/03 03:48:49;;;;;;;23.27;13.68;;;14.40;99.90;;;;;;6249753;22;20007;-78
2021/07/03 03:51:15;;;;;;;16.40;12.68;;;14.40;99.90;;;;;;6249324;22;20015;-77
2021/07/03 03:53:41;;;;;;;18.75;13.23;;;14.40;99.90;;;;;;6249150;22;20022;-77
2021/07/03 03:56:07;;;;;;;22.27;13.38;;;14.40;99.90;;;;;;6224605;22;20035;-78
2021/07/03 03:58:34;;;;;;;20.25;13.65;;;14.40;99.90;;;;;;6199049;22;20020;-77
2021/07/03 04:01:00;;;;;;;19.52;14.05;;;14.50;99.90;;;;;;6250680;22;20031;-80
2021/07/03 04:03:25;;;;;;;19.60;13.40;;;14.50;99.90;;;;;;6226695;22;20008;-80
2021/07/03 04:05:51;;;;;;;19.05;13.55;;;14.30;99.90;;;;;;6276623;22;20445;-80
2021/07/03 04:08:17;;;;;;;16.85;12.95;;;14.40;99.90;;;;;;6249488;22;20050;-80
2021/07/03 04:10:45;;;;;;;21.85;13.75;;;14.50;99.90;;;;;;6248251;22;20066;-80
2021/07/03 04:13:11;;;;;;;19.35;12.85;;;14.60;99.90;;;;;;6278923;22;20039;-80
2021/07/03 04:15:37;;;;;;;17.73;13.65;;;14.60;99.90;;;;;;6277035;22;20016;-80
2021/07/03 04:18:03;;;;;;;16.58;13.15;;;14.60;99.90;;;;;;6251117;22;20373;-80
2021/07/03 04:20:29;;;;;;;17.48;12.90;;;14.60;99.90;;;;;;6249526;22;20012;-80
2021/07/03 04:22:56;;;;;;;21.38;12.75;;;14.60;99.90;;;;;;6224837;22;20015;-80
2021/07/03 04:25:22;;;;;;;19.73;12.88;;;14.70;99.90;;;;;;6225096;22;20004;-80
2021/07/03 04:27:48;;;;;;;16.50;12.82;;;14.70;99.90;;;;;;6252686;22;20019;-80
2021/07/03 04:30:16;;;;;;;21.80;13.05;;;14.80;99.90;;;;;;6279220;22;20034;-80
2021/07/03 04:32:43;;;;;;;18.02;12.05;;;14.80;99.90;;;;;;6278601;22;20004;-80
2021/07/03 04:35:11;;;;;;;16.83;13.07;;;14.90;99.90;;;;;;6251537;22;20012;-80
2021/07/03 04:37:37;;;;;;;17.50;13.32;;;14.90;99.90;;;;;;6250120;22;20017;-80
2021/07/03 04:40:06;;;;;;;16.63;13.05;;;15.00;99.90;;;;;;6249241;22;20066;-80
2021/07/03 04:42:35;;;;;;;15.90;12.55;;;15.10;99.90;;;;;;6276900;22;20018;-80
2021/07/03 04:45:06;;;;;;;21.50;13.68;;;15.20;99.90;;;;;;6276472;22;20016;-80
2021/07/03 04:47:33;;;;;;;18.85;13.65;;;15.20;99.90;;;;;;6249035;22;20487;-80
2021/07/03 04:49:59;;;;;;;16.88;12.60;;;15.30;99.90;;;;;;6225226;22;20008;-80
2021/07/03 04:52:26;;;;;;;18.67;12.35;;;15.40;99.90;;;;;;6277090;22;20464;-80
2021/07/03 04:54:53;;;;;;;15.10;12.40;;;15.30;99.90;;;;;;6276176;22;20033;-81
2021/07/03 04:57:19;;;;;;;15.10;12.40;;;15.50;99.90;;;;;;6276569;22;20011;-80
2021/07/03 04:59:45;;;;;;;14.57;11.05;;;15.60;99.90;;;;;;6276073;22;20008;-80
2021/07/03 05:02:13;;;;;;;16.08;11.90;;;15.70;99.90;;;;;;6276235;22;20022;-80
2021/07/03 05:04:42;;;;;;;20.35;11.82;;;15.80;99.90;;;;;;6249087;22;20434;-80
2021/07/03 05:07:08;;;;;;;17.55;11.43;;;15.90;99.90;;;;;;6275806;22;20012;-80
2021/07/03 05:09:35;;;;;;;16.58;11.38;;;16.00;99.90;;;;;;6276167;22;20379;-80
2021/07/03 05:12:01;;;;;;;20.40;11.23;;;16.20;99.90;;;;;;6249564;22;20046;-80
2021/07/03 05:14:28;;;;;;;18.55;11.35;;;16.30;99.90;;;;;;6225791;22;20016;-80
2021/07/03 05:16:54;;;;;;;19.38;10.98;;;16.40;99.90;;;;;;6249052;22;20389;-80
2021/07/03 05:19:20;;;;;;;16.05;10.38;;;16.50;99.90;;;;;;6278461;22;20008;-81
2021/07/03 05:21:46;;;;;;;18.17;11.73;;;16.60;99.90;;;;;;6200022;22;20449;-80
2021/07/03 05:24:12;;;;;;;18.73;10.52;;;16.80;99.90;;;;;;6250831;22;20050;-80
2021/07/03 05:26:38;;;;;;;14.38;10.38;;;16.80;99.90;;;;;;6225314;22;20389;-80
2021/07/03 05:29:05;;;;;;;13.43;9.60;;;16.90;99.90;;;;;;6278102;22;20032;-80
2021/07/03 05:31:32;;;;;;;15.60;9.85;;;17.00;99.90;;;;;;6250170;22;20008;-80
2021/07/03 05:34:00;;;;;;;15.60;9.75;;;17.10;99.90;;;;;;6250579;22;20011;-81
2021/07/03 05:36:29;;;;;;;14.27;8.52;;;17.20;99.90;;;;;;6251874;22;20011;-81
2021/07/03 05:39:15;;;;;;;15.18;8.02;;;17.30;99.90;;;;;;6251677;22;20018;-81
2021/07/03 05:41:45;;;;;;;15.82;7.97;;;17.30;99.90;;;;;;6250752;22;20022;-81
2021/07/03 05:44:22;;;;;;;14.55;8.38;;;17.40;99.90;;;;;;6252479;22;20088;-81
2021/07/03 05:46:48;;;;;;;13.18;7.93;;;17.50;99.90;;;;;;6224761;22;20012;-77
2021/07/03 05:49:16;;;;;;;15.10;7.68;;;17.70;99.90;;;;;;6277125;22;20083;-80
2021/07/03 05:51:42;;;;;;;11.27;6.78;;;17.50;99.90;;;;;;6250013;22;20008;-77
2021/07/03 05:54:08;;;;;;;11.68;7.10;;;17.50;99.90;;;;;;6250164;22;20058;-80
2021/07/03 05:56:37;;;;;;;12.02;6.93;;;17.50;99.90;;;;;;6251262;22;20094;-80
2021/07/03 05:59:05;;;;;;;10.77;6.55;;;17.60;99.90;;;;;;6226234;22;20027;-80
2021/07/03 06:01:31;;;;;;;10.15;6.28;;;17.60;99.90;;;;;;6251560;22;20141;-80
2021/07/03 06:03:56;;;;;;;12.13;6.20;;;17.60;99.90;;;;;;6253327;22;20036;-77
2021/07/03 06:06:22;;;;;;;12.15;5.85;;;17.50;99.90;;;;;;6225645;22;20011;-78
2021/07/03 06:08:50;;;;;;;9.13;6.65;;;17.50;99.90;;;;;;6278750;22;20079;-78
2021/07/03 06:11:22;;;;;;;11.85;6.65;;;17.60;99.90;;;;;;6251638;22;20018;-78
2021/07/03 06:13:50;;;;;;;10.73;6.57;;;17.70;99.90;;;;;;6227664;22;20007;-80
2021/07/03 06:16:16;;;;;;;11.40;6.93;;;17.70;99.90;;;;;;6279509;22;20035;-78
2021/07/03 06:18:45;;;;;;;13.85;6.70;;;17.80;99.90;;;;;;6279049;22;20034;-78
2021/07/03 06:21:11;;;;;;;12.35;6.63;;;17.90;99.90;;;;;;6279685;22;20012;-78
2021/07/03 06:23:38;;;;;;;9.63;6.88;;;18.00;99.90;;;;;;6250959;22;20457;-77
2021/07/03 06:26:06;;;;;;;15.90;6.40;;;18.00;99.90;;;;;;6276582;22;20007;-77
2021/07/03 06:28:32;;;;;;;12.80;6.72;;;18.00;99.90;;;;;;6226664;22;20023;-78
2021/07/03 06:30:59;;;;;;;10.52;6.80;;;18.00;99.90;;;;;;6277105;22;20065;-79
2021/07/03 06:33:25;;;;;;;11.93;6.65;;;17.80;99.90;;;;;;6228063;22;20004;-78
2021/07/03 06:35:57;;;;;;;12.13;6.88;;;18.00;99.90;;;;;;6253748;22;20083;-77
2021/07/03 06:38:25;;;;;;;14.55;6.43;;;18.10;99.90;;;;;;6278580;22;20012;-78
2021/07/03 06:40:54;;;;;;;9.70;6.85;;;18.10;99.90;;;;;;6227895;22;20011;-80
2021/07/03 06:43:20;;;;;;;10.75;7.60;;;18.10;99.90;;;;;;6250734;22;20358;-80
2021/07/03 06:45:46;;;;;;;12.00;6.82;;;18.10;99.90;;;;;;6249837;22;20008;-80
2021/07/03 06:48:12;;;;;;;13.73;7.25;;;18.20;99.90;;;;;;6279303;22;20022;-80
2021/07/03 06:50:38;;;;;;;13.20;6.82;;;18.20;99.90;;;;;;6277691;22;20004;-77
2021/07/03 06:53:04;;;;;;;11.02;6.93;;;18.30;99.90;;;;;;6276628;22;20004;-77
2021/07/03 06:55:30;;;;;;;12.18;6.78;;;18.40;99.90;;;;;;6225593;22;20046;-77
2021/07/03 06:57:56;;;;;;;12.65;7.55;;;18.50;99.90;;;;;;6250005;22;20403;-77
2021/07/03 07:00:22;;;;;;;12.63;6.72;;;18.60;99.90;;;;;;6250370;22;20007;-77
2021/07/03 07:02:48;;;;;;;11.30;6.57;;;18.70;99.90;;;;;;6250412;22;20438;-77
2021/07/03 07:05:14;;;;;;;11.27;6.82;;;18.70;99.90;;;;;;6278235;22;20014;-77
2021/07/03 07:07:40;;;;;;;11.45;6.30;;;18.80;99.90;;;;;;6224005;22;20046;-77
2021/07/03 07:10:06;;;;;;;15.95;6.25;;;18.90;99.90;;;;;;6225325;22;20086;-77
2021/07/03 07:12:35;;;;;;;12.55;6.95;;;18.90;99.90;;;;;;6275584;22;20008;-79
2021/07/03 07:15:01;;;;;;;11.10;7.57;;;18.90;99.90;;;;;;6226784;22;20027;-80
2021/07/03 07:17:28;;;;;;;12.00;6.68;;;18.80;99.90;;;;;;6249888;22;20023;-80
2021/07/03 07:19:54;;;;;;;11.70;6.88;;;18.80;99.90;;;;;;6278913;22;20015;-80
2021/07/03 07:22:23;;;;;;;14.35;7.00;;;18.90;99.90;;;;;;6277762;22;20035;-80
2021/07/03 07:24:49;;;;;;;10.00;6.70;;;18.80;99.90;;;;;;6278943;22;20086;-80
2021/07/03 07:27:15;;;;;;;14.90;7.10;;;18.90;99.90;;;;;;6277673;22;20020;-80
2021/07/03 07:29:46;;;;;;;13.02;7.07;;;18.90;99.90;;;;;;6277528;22;20007;-80
2021/07/03 07:32:11;;;;;;;12.38;7.38;;;18.90;99.90;;;;;;6251161;22;20105;-79
2021/07/03 07:34:37;;;;;;;14.82;7.45;;;19.00;99.90;;;;;;6275669;22;20083;-80
2021/07/03 07:37:06;;;;;;;13.23;7.47;;;19.00;99.90;;;;;;6277150;22;20018;-85
2021/07/03 07:39:56;;;;;;;17.50;7.13;;;19.00;99.90;;;;;;6279631;22;20030;-81
2021/07/03 07:42:31;;;;;;;11.32;7.60;;;19.00;99.90;;;;;;6279837;22;20007;-85
2021/07/03 07:45:03;;;;;;;16.08;8.85;;;19.10;99.90;;;;;;6225797;22;20039;-85
2021/07/03 07:47:34;;;;;;;18.40;8.45;;;19.20;99.90;;;;;;6250591;22;20045;-79
2021/07/03 07:50:07;;;;;;;14.30;9.00;;;19.20;99.90;;;;;;6248965;22;20035;-80
2021/07/03 07:52:45;;;;;;;15.75;8.68;;;19.10;99.90;;;;;;6223955;22;20015;-80
2021/07/03 07:55:17;;;;;;;13.65;7.80;;;19.00;99.90;;;;;;6275321;22;20346;-80
2021/07/03 07:57:43;;;;;;;12.10;7.68;;;18.90;99.90;;;;;;6250263;22;20442;-77
2021/07/03 08:00:10;;;;;;;13.20;7.15;;;18.80;99.90;;;;;;6279219;22;20015;-79
2021/07/03 08:02:39;;;;;;;12.35;8.15;;;18.80;99.90;;;;;;6279803;22;20360;-77
2021/07/03 08:05:11;;;;;;;15.23;9.23;;;18.80;99.90;;;;;;6276802;22;20011;-92
2021/07/03 08:07:45;;;;;;;18.02;9.23;;;18.70;99.90;;;;;;6276323;22;20007;-85
2021/07/03 08:10:12;;;;;;;17.08;8.93;;;18.70;99.90;;;;;;6225263;22;20370;-74
2021/07/03 08:12:41;;;;;;;12.80;8.35;;;18.70;99.90;;;;;;6278952;22;20074;-78
2021/07/03 08:15:08;;;;;;;15.75;8.13;;;18.60;99.90;;;;;;6275888;22;20330;-78
2021/07/03 08:17:35;;;;;;;14.68;7.57;;;18.60;99.90;;;;;;6253050;22;20433;-77
2021/07/03 08:20:01;;;;;;;14.25;8.15;;;18.60;99.90;;;;;;6226271;22;20087;-78
2021/07/03 08:22:29;;;;;;;16.48;8.27;;;18.60;99.90;;;;;;6276993;22;20425;-78
2021/07/03 08:24:54;;;;;;;21.35;8.05;;;18.60;99.90;;;;;;6250342;22;20011;-74
2021/07/03 08:27:20;;;;;;;14.68;7.65;;;18.70;99.90;;;;;;6275265;22;20380;-78
2021/07/03 08:29:46;;;;;;;15.15;7.70;;;18.70;99.90;;;;;;6227816;22;20011;-78
2021/07/03 08:32:14;;;;;;;12.30;7.88;;;18.70;99.90;;;;;;6278862;22;20434;-78
2021/07/03 08:34:40;;;;;;;14.75;7.90;;;18.70;99.90;;;;;;6199157;22;20015;-78
2021/07/03 08:37:05;;;;;;;14.02;7.10;;;18.80;99.90;;;;;;6276932;22;20437;-78
2021/07/03 08:39:31;;;;;;;14.73;7.40;;;18.80;99.90;;;;;;6250946;22;20034;-78
2021/07/03 08:41:57;;;;;;;14.95;7.65;;;18.80;99.90;;;;;;6198711;22;20011;-78
2021/07/03 08:44:23;;;;;;;13.98;7.00;;;18.80;99.90;;;;;;6249521;22;20019;-78
2021/07/03 08:46:52;;;;;;;14.43;7.13;;;18.80;99.90;;;;;;6248707;22;20027;-78
2021/07/03 08:49:21;;;;;;;15.43;7.10;;;18.90;99.90;;;;;;6275745;22;20015;-74
2021/07/03 08:52:12;;;;;;;12.00;7.10;;;18.90;99.90;;;;;;6277942;22;20015;-76
2021/07/03 08:54:53;;;;;;;13.90;6.80;;;19.00;99.90;;;;;;6274524;22;20083;-76
2021/07/03 08:57:22;;;;;;;14.00;6.82;;;19.00;99.90;;;;;;6279178;22;20022;-76
2021/07/03 08:59:58;;;;;;;13.27;5.97;;;19.10;99.90;;;;;;6248733;22;20357;-76
2021/07/03 09:02:39;;;;;;;11.73;6.80;;;19.20;99.90;;;;;;6251180;22;20034;-78
2021/07/03 09:05:17;;;;;;;10.70;6.28;;;19.20;99.90;;;;;;6276509;22;20107;-79
2021/07/03 09:07:43;;;;;;;11.23;6.18;;;19.20;99.90;;;;;;6276193;22;20090;-77
2021/07/03 09:10:09;;;;;;;12.27;6.90;;;19.30;99.90;;;;;;6248660;22;20069;-77
2021/07/03 09:12:38;;;;;;;10.32;6.60;;;19.30;99.90;;;;;;6248731;22;20008;-84
2021/07/03 09:15:25;;;;;;;13.10;6.10;;;19.30;99.90;;;;;;6246975;22;20124;-81
2021/07/03 09:18:44;;;;;;;12.38;6.38;;;19.40;99.90;;;;;;6274544;22;20012;-81
2021/07/03 09:21:34;;;;;;;10.82;5.97;;;19.50;99.90;;;;;;6193457;22;20457;-81
2021/07/03 09:24:45;;;;;;;;;;;;;;;;;;;;;
2021/07/03 09:30:33;;;;;;;10.88;6.60;;;19.70;99.90;;;;;;6276947;22;20061;-83
2021/07/03 09:32:59;;;;;;;10.25;6.10;;;19.70;99.90;;;;;;6251258;22;20012;-79
2021/07/03 09:35:25;;;;;;;12.20;6.57;;;19.70;99.90;;;;;;6249695;22;20050;-79
2021/07/03 09:37:58;;;;;;;15.00;7.00;;;19.70;99.90;;;;;;6278471;22;20012;-79
2021/07/03 09:40:28;;;;;;;12.38;6.97;;;19.70;99.90;;;;;;6278781;22;20035;-78
2021/07/03 09:43:01;;;;;;;11.15;5.65;;;19.80;99.90;;;;;;6277442;22;20012;-79
2021/07/03 09:49:50;;;;;;;;;;;;;;;;;;;;;
2021/07/03 09:53:24;;;;;;;10.30;5.95;;;19.80;99.90;;;;;;6183110;23;20023;-90
2021/07/03 09:59:45;;;;;;;10.88;6.43;;;19.90;99.90;;;;;;6143468;23;20025;-92
2021/07/03 10:02:29;;;;;;;11.43;5.75;;;20.30;99.90;;;;;;6173158;22;20088;-77
2021/07/03 10:04:55;;;;;;;13.30;6.18;;;20.10;99.90;;;;;;6250080;22;20047;-77
2021/07/03 10:07:41;;;;;;;14.18;5.45;;;20.10;99.90;;;;;;6224328;22;20015;-77
2021/07/03 10:10:11;;;;;;;;;;;20.20;99.90;;;;;;6279209;22;20016;-77
2021/07/03 10:12:41;;;;;;;12.30;6.88;;;20.30;99.90;;;;;;6250731;22;19915;-76
2021/07/03 10:15:07;;;;;;;10.25;6.32;;;20.30;99.90;;;;;;6276940;22;20015;-80
2021/07/03 10:17:39;;;;;;;10.68;5.63;;;20.40;99.90;;;;;;6252241;22;20015;-80
2021/07/03 10:20:14;;;;;;;13.85;6.28;;;20.40;99.90;;;;;;6250310;22;20082;-84
2021/07/03 10:22:54;;;;;;;8.73;5.50;;;20.50;99.90;;;;;;6224700;22;20071;-80
2021/07/03 10:25:33;;;;;;;10.32;5.00;;;20.50;99.90;;;;;;6276061;22;20015;-78
2021/07/03 10:28:00;;;;;;;11.23;5.38;;;20.40;99.90;;;;;;6277451;22;20028;-79
2021/07/03 10:30:40;;;;;;;6.85;4.25;;;20.60;99.90;;;;;;6250045;22;20452;-79
2021/07/03 10:33:17;;;;;;;9.25;4.78;;;20.70;99.90;;;;;;6279319;22;20505;-79
2021/07/03 10:35:49;;;;;;;8.88;4.40;;;20.70;99.90;;;;;;6250075;22;20012;-81
2021/07/03 10:38:26;;;;;;;7.53;4.60;;;20.70;99.90;;;;;;6277819;22;20080;-81
2021/07/03 10:40:54;;;;;;;9.20;5.10;;;20.70;99.90;;;;;;6277821;22;20016;-81
2021/07/03 10:43:22;;;;;;;10.80;6.13;;;20.70;99.90;;;;;;6277329;22;20331;-80
2021/07/03 10:45:54;;;;;;;10.38;5.82;;;20.80;99.90;;;;;;6249665;22;20062;-81
2021/07/03 10:48:25;;;;;;;8.48;5.47;;;20.90;99.90;;;;;;6249703;22;20396;-80
2021/07/03 10:50:54;;;;;;;9.57;5.60;;;20.90;99.90;;;;;;6249466;22;20342;-80
2021/07/03 10:53:30;;;;;;;10.02;6.20;;;21.00;99.90;;;;;;6278371;22;20012;-81
2021/07/03 10:56:14;;;;;;;12.75;6.57;;;21.00;99.90;;;;;;6249152;22;20075;-80
2021/07/03 10:58:42;;;;;;;10.32;6.40;;;21.00;99.90;;;;;;6252403;22;20015;-80
2021/07/03 11:01:13;;;;;;;9.65;6.05;;;21.00;99.90;;;;;;6277234;22;20090;-81
2021/07/03 11:03:47;;;;;;;15.15;6.47;;;21.10;99.90;;;;;;6275662;22;20014;-81
2021/07/03 11:06:15;;;;;;;14.75;6.70;;;21.10;99.90;;;;;;6278041;22;20012;-80
2021/07/03 11:08:43;;;;;;;11.73;6.10;;;21.10;99.90;;;;;;6276895;22;20011;-80
2021/07/03 11:11:10;;;;;;;13.43;6.03;;;21.10;99.90;;;;;;6277896;22;20118;-80
2021/07/03 11:13:36;;;;;;;11.45;6.63;;;21.10;99.90;;;;;;6276771;22;20011;-81
2021/07/03 11:16:07;;;;;;;11.98;5.90;;;21.20;99.90;;;;;;6250103;22;20099;-81
2021/07/03 11:18:45;;;;;;;10.32;5.65;;;21.30;99.90;;;;;;6276314;22;20012;-81
2021/07/03 11:21:14;;;;;;;10.15;5.65;;;21.30;99.90;;;;;;6279916;22;20371;-80
2021/07/03 11:23:40;;;;;;;11.25;5.45;;;21.40;99.90;;;;;;6250327;22;20008;-81
2021/07/03 11:26:14;;;;;;;9.85;5.38;;;21.50;99.90;;;;;;6226713;22;20380;-80
2021/07/03 11:28:41;;;;;;;9.88;5.50;;;21.60;99.90;;;;;;6278223;22;20011;-80
2021/07/03 11:31:07;;;;;;;10.43;6.30;;;21.60;99.90;;;;;;6251088;22;20059;-80
2021/07/03 11:33:35;;;;;;;13.40;6.05;;;21.60;99.90;;;;;;6225481;22;20035;-81
2021/07/03 11:36:05;;;;;;;8.77;5.25;;;21.60;99.90;;;;;;6248874;22;20035;-80
2021/07/03 11:38:32;;;;;;;8.95;5.30;;;21.60;99.90;;;;;;6276600;22;20082;-80
2021/07/03 11:41:03;;;;;;;10.15;5.22;;;21.60;99.90;;;;;;6249418;22;20008;-80
2021/07/03 11:43:40;;;;;;;10.88;5.07;;;21.60;99.90;;;;;;6277614;22;20084;-81
2021/07/03 11:46:06;;;;;;;11.77;4.80;;;21.70;99.90;;;;;;6250532;22;20015;-80
2021/07/03 11:48:32;;;;;;;8.52;4.75;;;21.70;99.90;;;;;;6224156;22;20012;-77
2021/07/03 11:51:03;;;;;;;9.85;5.15;;;21.80;99.90;;;;;;6224834;22;20054;-76
2021/07/03 11:53:33;;;;;;;11.98;5.78;;;21.90;99.90;;;;;;6275310;22;20003;-77
2021/07/03 11:56:01;;;;;;;11.30;7.88;;;21.90;99.90;;;;;;6274962;22;20023;-76
2021/07/03 11:58:35;;;;;;;11.40;6.38;;;21.80;99.90;;;;;;6275102;22;20031;-76
2021/07/03 12:01:07;;;;;;;9.40;5.28;;;21.70;99.90;;;;;;6275269;22;20012;-76
2021/07/03 12:03:35;;;;;;;8.70;5.53;;;21.60;99.90;;;;;;6278378;22;20017;-76
2021/07/03 12:06:04;;;;;;;11.05;5.65;;;21.50;99.90;;;;;;6249204;22;20012;-76
2021/07/03 12:08:39;;;;;;;10.85;5.53;;;21.40;99.90;;;;;;6248506;22;20022;-76
2021/07/03 12:11:07;;;;;;;7.18;4.75;;;21.30;99.90;;;;;;6274736;22;20050;-76
2021/07/03 12:13:35;;;;;;;7.20;4.82;;;21.20;99.90;;;;;;6274348;22;20015;-76
2021/07/03 12:16:04;;;;;;;7.10;4.68;;;21.10;99.90;;;;;;6250619;22;20023;-76
2021/07/03 12:18:31;;;;;;;9.00;5.00;;;21.10;99.90;;;;;;6249138;22;20003;-76
2021/07/03 12:21:22;;;;;;;9.23;4.60;;;21.00;99.90;;;;;;6250150;22;20015;-77
2021/07/03 12:23:49;;;;;;;10.27;4.68;;;21.10;99.90;;;;;;6249625;22;20051;-79
2021/07/03 12:26:26;;;;;;;9.80;5.10;;;21.20;99.90;;;;;;6248129;22;20020;-78
2021/07/03 12:28:56;;;;;;;5.68;4.18;;;21.30;99.90;;;;;;6276098;22;20019;-78
2021/07/03 12:31:31;;;;;;;8.05;4.45;;;21.50;99.90;;;;;;6276105;22;20018;-83
2021/07/03 12:34:27;;;;;;;8.50;4.60;;;21.50;99.90;;;;;;6248481;22;20020;-83
2021/07/03 12:37:00;;;;;;;;;;;21.60;99.90;;;;;;6239464;22;20024;-82
2021/07/03 12:39:29;;;;;;;6.05;3.83;;;21.50;99.90;;;;;;6274506;22;19911;-83
2021/07/03 12:42:08;;;;;;;10.15;4.55;;;21.60;99.90;;;;;;6247910;22;20442;-84
2021/07/03 12:44:53;;;;;;;6.30;4.32;;;21.80;99.90;;;;;;6275840;22;20034;-85
2021/07/03 12:47:23;;;;;;;7.38;4.40;;;21.90;99.90;;;;;;6203746;22;20087;-83
2021/07/03 12:49:59;;;;;;;7.57;4.53;;;22.00;99.90;;;;;;6248670;22;20010;-83
2021/07/03 12:52:38;;;;;;;10.20;4.43;;;21.90;99.90;;;;;;6275666;22;20004;-83
2021/07/03 12:55:09;;;;;;;9.45;3.95;;;21.90;99.90;;;;;;6275750;22;20012;-83
2021/07/03 12:57:47;;;;;;;5.95;4.07;;;22.00;99.90;;;;;;6275477;22;20016;-83
2021/07/03 13:00:14;;;;;;;7.93;4.07;;;22.20;99.90;;;;;;6248258;22;20012;-84